This is the latest recevied weather packets stored in our database for station/object F1JRN-13. If no packets are shown the sender has not sent any weather packets the latest 10 day(s).
| Time | Temp. | Humidity | Pressure | Rain* | Wind** | Luminosity | Snow |
|---|---|---|---|---|---|---|---|
| 1777317052 | 19.44° C | 32% | 1010.2 hPa | 0 mm | - | - | - |
| 1777312192 | 25° C | 27% | 1010 hPa | 0 mm | - | - | - |
| 1777304632 | 26.11° C | 27% | 1010.1 hPa | 0 mm | - | - | - |
| 1777298152 | 27.22° C | 30% | 1011.2 hPa | 0 mm | - | - | - |
| 1777292753 | 26.11° C | 29% | 1011.9 hPa | 0 mm | - | - | - |
| 1777292212 | 26.11° C | 30% | 1012 hPa | 0 mm | - | - | - |
| 1777291132 | 26.11° C | 26% | 1012 hPa | 0 mm | - | - | - |
| 1777290052 | 25.56° C | 30% | 1012.2 hPa | 0 mm | - | - | - |
| 1777286272 | 25.56° C | 30% | 1012.6 hPa | 0 mm | - | - | - |
| 1777279793 | 21.67° C | 47% | 1012.8 hPa | 0 mm | - | - | - |
| 1777274393 | 19.44° C | 56% | 1013.2 hPa | 0 mm | - | - | - |
| 1777272773 | 15° C | 65% | 1013.1 hPa | 0 mm | - | - | - |
| 1777269532 | 10.56° C | 70% | 1012.8 hPa | 0 mm | - | - | - |
| 1777268992 | 10.56° C | 70% | 1012.8 hPa | 0 mm | - | - | - |
| 1777265753 | 10° C | 63% | 1012.4 hPa | 0 mm | - | - | - |
| 1777265212 | 10.56° C | 63% | 1012.5 hPa | 0 mm | - | - | - |
| 1777260892 | 12.22° C | 60% | 1012.4 hPa | 0 mm | - | - | - |
| 1777259813 | 12.22° C | 55% | 1012.6 hPa | 0 mm | - | - | - |
| 1777255492 | 13.89° C | 56% | 1012.3 hPa | 0 mm | - | - | - |
| 1777253873 | 13.89° C | 57% | 1012.5 hPa | 0 mm | - | - | - |
| 1777249012 | 14.44° C | 57% | 1013 hPa | 0 mm | - | - | - |
| 1777248473 | 15° C | 57% | 1013.1 hPa | 0 mm | - | - | - |
| 1777247393 | 15° C | 57% | 1013.2 hPa | 0 mm | - | - | - |
| 1777246313 | 15.56° C | 58% | 1013.2 hPa | 0 mm | - | - | - |
| 1777244153 | 15.56° C | 59% | 1013.3 hPa | 0 mm | - | - | - |
* Rain latest hour (hover to see other rain measurements)
** Current wind speed in m/s (hover to see current wind gust speed)